createdAt,value
2018-03-19T00:01:47.054Z,50.00
2018-03-19T00:04:14.647Z,49.90
2018-03-19T00:06:42.243Z,49.70
2018-03-19T00:09:10.629Z,49.90
2018-03-19T00:11:39.003Z,49.90
2018-03-19T00:14:07.382Z,49.80
2018-03-19T00:16:35.740Z,50.20
2018-03-19T00:19:03.324Z,50.20
2018-03-19T00:21:30.940Z,49.80
2018-03-19T00:23:58.526Z,50.00
2018-03-19T00:26:26.132Z,49.90
2018-03-19T00:28:53.720Z,49.90
2018-03-19T00:31:22.150Z,50.00
2018-03-19T00:33:49.730Z,50.00
2018-03-19T00:36:18.094Z,50.00
2018-03-19T00:38:45.682Z,50.00
2018-03-19T00:41:13.285Z,50.00
2018-03-19T00:43:40.893Z,50.10
2018-03-19T00:46:08.503Z,49.90
2018-03-19T00:48:36.106Z,50.20
2018-03-19T00:51:03.721Z,50.00
2018-03-19T00:53:31.343Z,49.90
2018-03-19T00:55:59.003Z,50.60
2018-03-19T00:58:26.611Z,50.10
2018-03-19T01:00:54.966Z,50.00
2018-03-19T01:03:23.442Z,50.00
2018-03-19T01:05:51.041Z,50.20
2018-03-19T01:08:18.657Z,50.00
2018-03-19T01:10:46.236Z,50.20
2018-03-19T01:13:13.813Z,50.60
2018-03-19T01:15:41.411Z,50.30
2018-03-19T01:18:09.763Z,50.60
2018-03-19T01:20:37.336Z,50.60
2018-03-19T01:23:04.947Z,50.40
2018-03-19T01:25:32.573Z,50.40
2018-03-19T01:28:00.153Z,50.10
2018-03-19T01:30:28.510Z,50.50
2018-03-19T01:32:56.135Z,50.20
2018-03-19T01:35:23.715Z,50.40
2018-03-19T01:37:51.320Z,50.40
2018-03-19T01:40:18.925Z,50.50
2018-03-19T01:42:46.542Z,50.20
2018-03-19T01:45:14.136Z,50.40
2018-03-19T01:47:42.513Z,51.00
2018-03-19T01:50:10.927Z,50.90
2018-03-19T01:52:49.432Z,50.80
2018-03-19T01:55:17.017Z,50.80
2018-03-19T01:57:44.662Z,50.80
2018-03-19T02:00:12.265Z,51.20
2018-03-19T02:02:39.852Z,51.70
2018-03-19T02:05:07.513Z,51.10
2018-03-19T02:07:35.110Z,51.00
2018-03-19T02:10:02.701Z,50.70
2018-03-19T02:12:30.291Z,50.80
2018-03-19T02:14:57.858Z,50.90
2018-03-19T02:17:25.425Z,50.90
2018-03-19T02:19:53.025Z,51.10
2018-03-19T02:22:20.642Z,51.30
2018-03-19T02:24:48.251Z,51.10
2018-03-19T02:27:15.883Z,51.00
2018-03-19T02:29:43.475Z,51.00
2018-03-19T02:32:11.064Z,51.30
2018-03-19T02:34:39.406Z,51.30
2018-03-19T02:37:07.120Z,51.20
2018-03-19T02:39:34.722Z,51.30
2018-03-19T02:42:02.320Z,51.70
2018-03-19T02:44:31.663Z,51.80
2018-03-19T02:46:59.289Z,51.80
2018-03-19T02:49:26.880Z,51.80
2018-03-19T02:51:54.499Z,52.00
2018-03-19T02:54:22.102Z,52.00
2018-03-19T02:56:49.678Z,51.90
2018-03-19T02:59:17.322Z,52.10
2018-03-19T03:01:44.991Z,52.20
2018-03-19T03:04:12.588Z,52.50
2018-03-19T03:06:40.184Z,52.50
2018-03-19T03:09:07.779Z,52.50
2018-03-19T03:11:35.364Z,52.60
2018-03-19T03:14:02.942Z,52.50
2018-03-19T03:16:30.549Z,52.60
2018-03-19T03:18:58.142Z,52.90
2018-03-19T03:21:25.770Z,52.40
2018-03-19T03:23:53.369Z,52.70
2018-03-19T03:26:21.736Z,53.10
2018-03-19T03:28:49.500Z,52.80
2018-03-19T03:31:17.107Z,53.10
2018-03-19T03:33:45.433Z,53.10
2018-03-19T03:36:13.470Z,53.10
2018-03-19T03:38:41.825Z,53.10
2018-03-19T03:41:09.448Z,53.00
2018-03-19T03:43:37.069Z,53.10
2018-03-19T03:46:04.661Z,53.00
2018-03-19T03:48:32.264Z,53.30
2018-03-19T03:50:59.901Z,53.10
2018-03-19T03:53:27.517Z,53.30
2018-03-19T03:55:55.837Z,53.50
2018-03-19T03:58:23.445Z,53.50
2018-03-19T04:00:51.077Z,53.60
2018-03-19T04:03:18.670Z,53.70
2018-03-19T04:05:46.314Z,53.90
2018-03-19T04:08:13.911Z,54.20
2018-03-19T04:10:41.528Z,54.10
2018-03-19T04:13:09.198Z,54.20
2018-03-19T04:15:37.586Z,54.30
2018-03-19T04:18:05.183Z,54.30
2018-03-19T04:20:32.787Z,54.20
2018-03-19T04:23:00.397Z,54.30
2018-03-19T04:25:28.003Z,54.40
2018-03-19T04:27:57.057Z,54.70
2018-03-19T04:30:25.441Z,54.70
2018-03-19T04:32:53.014Z,54.70
2018-03-19T04:35:21.423Z,54.70
2018-03-19T04:37:49.025Z,55.20
2018-03-19T04:40:16.613Z,54.90
2018-03-19T04:42:44.222Z,54.60
2018-03-19T04:45:11.849Z,54.70
2018-03-19T04:47:39.468Z,54.90
2018-03-19T04:50:07.062Z,54.80
2018-03-19T04:52:34.674Z,54.60
2018-03-19T04:55:03.788Z,54.70
2018-03-19T04:57:31.414Z,54.70
2018-03-19T04:59:59.015Z,54.70
2018-03-19T05:02:26.614Z,54.90
2018-03-19T05:04:55.653Z,55.10
2018-03-19T05:07:23.274Z,55.10
2018-03-19T05:09:51.645Z,55.40
2018-03-19T05:12:19.285Z,55.30
2018-03-19T05:14:46.888Z,55.40
2018-03-19T05:17:14.487Z,55.20
2018-03-19T05:19:42.078Z,55.40
2018-03-19T05:22:09.686Z,55.20
2018-03-19T05:24:38.065Z,55.50
2018-03-19T05:27:05.700Z,55.50
2018-03-19T05:29:33.320Z,55.70
2018-03-19T05:32:00.997Z,55.40
2018-03-19T05:34:28.666Z,55.70
2018-03-19T05:36:56.254Z,55.70
2018-03-19T05:39:23.868Z,55.60
2018-03-19T05:41:52.226Z,55.60
2018-03-19T05:44:19.823Z,55.60
2018-03-19T05:46:48.221Z,55.80
2018-03-19T05:49:15.836Z,55.70
2018-03-19T05:51:43.481Z,55.60
2018-03-19T05:54:11.145Z,55.70
2018-03-19T05:56:38.801Z,55.40
2018-03-19T05:59:06.426Z,55.50
2018-03-19T06:01:34.061Z,55.50
2018-03-19T06:04:01.651Z,55.70
2018-03-19T06:06:29.268Z,55.80
2018-03-19T06:08:57.289Z,55.90
2018-03-19T06:11:24.968Z,56.30
2018-03-19T06:13:53.356Z,55.60
2018-03-19T06:16:21.000Z,55.50
2018-03-19T06:18:48.604Z,55.40
2018-03-19T06:21:16.220Z,55.50
2018-03-19T06:23:43.877Z,55.30
2018-03-19T06:26:11.533Z,55.40
2018-03-19T06:28:39.142Z,55.30
2018-03-19T06:31:07.530Z,55.30
2018-03-19T06:33:35.723Z,55.30
2018-03-19T06:36:03.385Z,54.90
2018-03-19T06:38:31.819Z,54.50
2018-03-19T06:40:59.485Z,54.40
2018-03-19T06:43:27.126Z,53.90
2018-03-19T06:45:54.706Z,54.00
2018-03-19T06:48:22.333Z,53.70
2018-03-19T06:50:50.701Z,53.60
2018-03-19T06:53:18.282Z,53.50
2018-03-19T06:55:46.720Z,53.10
2018-03-19T06:58:14.309Z,53.00
2018-03-19T07:00:41.946Z,52.80
2018-03-19T07:03:09.590Z,52.50
2018-03-19T07:05:37.186Z,52.70
2018-03-19T07:08:04.795Z,52.50
2018-03-19T07:10:32.437Z,52.50
2018-03-19T07:13:00.049Z,51.70
2018-03-19T07:15:27.658Z,51.20
2018-03-19T07:17:56.049Z,51.40
2018-03-19T07:20:23.629Z,51.40
2018-03-19T07:22:51.990Z,51.20
2018-03-19T07:25:19.604Z,50.50
2018-03-19T07:27:47.191Z,50.40
2018-03-19T07:30:14.844Z,50.40
2018-03-19T07:32:42.488Z,50.00
2018-03-19T07:35:10.840Z,50.00
2018-03-19T07:37:38.422Z,50.00
2018-03-19T07:40:06.026Z,49.90
2018-03-19T07:42:33.624Z,50.00
2018-03-19T07:45:01.256Z,49.50
2018-03-19T07:47:28.837Z,49.30
2018-03-19T07:49:56.425Z,49.50
2018-03-19T07:52:24.017Z,49.50
2018-03-19T07:54:51.588Z,49.10
2018-03-19T07:57:19.976Z,49.30
2018-03-19T07:59:47.618Z,48.70
2018-03-19T08:02:15.237Z,48.90
2018-03-19T08:04:42.924Z,48.10
2018-03-19T08:07:10.505Z,47.90
2018-03-19T08:09:39.048Z,48.10
2018-03-19T08:12:07.382Z,47.70
2018-03-19T08:14:35.007Z,47.70
2018-03-19T08:17:02.587Z,48.30
2018-03-19T08:19:30.232Z,47.70
2018-03-19T08:21:57.896Z,47.90
2018-03-19T08:24:25.509Z,47.40
2018-03-19T08:27:13.810Z,46.90
2018-03-19T08:29:41.374Z,46.90
2018-03-19T08:32:09.005Z,47.10
2018-03-19T08:34:37.341Z,46.70
2018-03-19T08:37:04.931Z,46.70
2018-03-19T08:39:32.500Z,47.00
2018-03-19T08:42:00.093Z,46.90
2018-03-19T08:44:29.431Z,47.10
2018-03-19T08:46:57.059Z,46.40
2018-03-19T08:49:24.647Z,46.50
2018-03-19T08:51:52.253Z,46.70
2018-03-19T08:54:19.857Z,47.30
2018-03-19T08:56:48.242Z,46.00
2018-03-19T08:59:15.834Z,45.90
2018-03-19T09:01:43.472Z,45.90
2018-03-19T09:04:11.816Z,46.10
2018-03-19T09:06:39.472Z,46.10
2018-03-19T09:09:07.187Z,45.60
2018-03-19T09:11:35.583Z,45.90
2018-03-19T09:14:03.178Z,45.90
2018-03-19T09:16:31.628Z,45.70
2018-03-19T09:18:59.258Z,46.00
2018-03-19T09:21:26.891Z,44.90
2018-03-19T09:23:54.523Z,45.90
2018-03-19T09:26:22.199Z,45.20
2018-03-19T09:28:49.765Z,45.20
2018-03-19T09:31:17.504Z,45.30
2018-03-19T09:33:45.908Z,44.80
2018-03-19T09:36:14.300Z,44.40
2018-03-19T09:38:41.936Z,45.00
2018-03-19T09:41:09.512Z,45.30
2018-03-19T09:43:37.866Z,44.80
2018-03-19T09:46:05.510Z,44.70
2018-03-19T09:48:33.233Z,44.00
2018-03-19T09:51:01.606Z,43.80
2018-03-19T09:53:29.364Z,43.80
2018-03-19T09:55:57.767Z,45.20
2018-03-19T09:58:26.173Z,43.70
2018-03-19T10:00:53.807Z,43.70
2018-03-19T10:03:22.267Z,43.40
2018-03-19T10:05:50.739Z,43.40
2018-03-19T10:08:19.165Z,43.50
2018-03-19T10:10:47.570Z,43.20
2018-03-19T10:13:15.174Z,43.20
2018-03-19T10:15:42.811Z,43.40
2018-03-19T10:18:10.416Z,42.60
2018-03-19T10:20:38.080Z,42.70
2018-03-19T10:23:05.718Z,41.80
2018-03-19T10:25:33.441Z,41.80
2018-03-19T10:28:01.808Z,42.10
2018-03-19T10:30:30.256Z,41.50
2018-03-19T10:32:57.868Z,41.40
2018-03-19T10:35:25.656Z,40.80
2018-03-19T10:37:53.977Z,41.20
2018-03-19T10:40:21.697Z,41.00
2018-03-19T10:42:49.431Z,40.30
2018-03-19T10:45:17.106Z,40.20
2018-03-19T10:47:44.794Z,40.50
2018-03-19T10:50:12.478Z,40.50
2018-03-19T10:52:40.077Z,40.40
2018-03-19T10:55:07.741Z,40.40
2018-03-19T10:57:35.391Z,39.90
2018-03-19T11:00:03.133Z,39.70
2018-03-19T11:02:32.674Z,41.00
2018-03-19T11:05:05.876Z,40.20
2018-03-19T11:07:52.270Z,40.10
2018-03-19T11:10:19.872Z,40.00
2018-03-19T11:12:48.351Z,39.00
2018-03-19T11:15:16.003Z,38.90
2018-03-19T11:17:43.662Z,38.50
2018-03-19T11:20:11.299Z,39.30
2018-03-19T11:22:38.935Z,39.40
2018-03-19T11:25:06.726Z,39.00
2018-03-19T11:27:34.349Z,38.90
2018-03-19T11:30:03.081Z,38.50
2018-03-19T11:32:30.719Z,38.30
2018-03-19T11:34:58.357Z,37.70
2018-03-19T11:37:26.913Z,38.20
2018-03-19T11:39:54.542Z,38.50
2018-03-19T11:42:22.280Z,39.00
2018-03-19T11:44:49.955Z,37.90
2018-03-19T11:47:17.674Z,38.50
2018-03-19T11:49:45.282Z,38.00
2018-03-19T11:52:12.890Z,37.20
2018-03-19T11:54:41.353Z,36.90
2018-03-19T11:57:09.742Z,37.20
2018-03-19T11:59:38.720Z,36.90
2018-03-19T12:02:07.305Z,36.90
2018-03-19T12:04:34.935Z,36.60
2018-03-19T12:07:04.735Z,36.40
2018-03-19T12:09:32.372Z,37.00
2018-03-19T12:12:00.809Z,36.50
2018-03-19T12:14:28.391Z,36.50
2018-03-19T12:16:56.013Z,37.10
2018-03-19T12:19:25.709Z,37.10
2018-03-19T12:21:54.060Z,36.10
2018-03-19T12:24:21.688Z,35.90
2018-03-19T12:26:51.335Z,36.20
2018-03-19T12:29:18.932Z,36.20
2018-03-19T12:31:46.688Z,36.50
2018-03-19T12:34:14.490Z,36.70
2018-03-19T12:36:42.122Z,37.10
2018-03-19T12:39:10.079Z,36.70
2018-03-19T12:41:37.874Z,36.80
2018-03-19T12:44:06.274Z,37.80
2018-03-19T12:46:36.268Z,37.10
2018-03-19T12:49:03.894Z,37.10
2018-03-19T12:51:31.513Z,36.90
2018-03-19T12:53:59.125Z,36.40
2018-03-19T12:56:26.711Z,36.90
2018-03-19T12:58:54.593Z,36.60
2018-03-19T13:01:22.426Z,36.30
2018-03-19T13:03:52.831Z,36.50
2018-03-19T13:06:20.980Z,37.00
2018-03-19T13:08:48.665Z,37.00
2018-03-19T13:11:17.246Z,36.80
2018-03-19T13:13:45.628Z,37.20
2018-03-19T13:16:14.063Z,37.10
2018-03-19T13:18:41.822Z,36.90
2018-03-19T13:21:09.557Z,36.50
2018-03-19T13:23:37.201Z,36.90
2018-03-19T13:26:04.902Z,36.40
2018-03-19T13:28:32.494Z,36.90
2018-03-19T13:31:00.105Z,36.80
2018-03-19T13:33:28.464Z,36.50
2018-03-19T13:35:56.149Z,36.40
2018-03-19T13:38:23.768Z,36.20
2018-03-19T13:40:51.429Z,36.50
2018-03-19T13:43:19.022Z,35.90
2018-03-19T13:45:46.721Z,36.30
2018-03-19T13:48:15.837Z,35.90
2018-03-19T13:50:43.687Z,35.80
2018-03-19T13:53:12.805Z,35.70
2018-03-19T13:55:42.130Z,36.70
2018-03-19T13:58:09.740Z,36.70
2018-03-19T14:00:38.502Z,36.20
2018-03-19T14:03:06.300Z,35.90
2018-03-19T14:05:34.803Z,36.30
2018-03-19T14:08:02.460Z,36.40
2018-03-19T14:10:30.078Z,36.50
2018-03-19T14:12:57.726Z,36.50
2018-03-19T14:15:25.468Z,36.00
2018-03-19T14:17:54.043Z,35.60
2018-03-19T14:20:22.130Z,35.60
2018-03-19T14:22:49.756Z,36.10
2018-03-19T14:25:18.405Z,36.50
2018-03-19T14:27:46.077Z,36.00
2018-03-19T14:30:14.616Z,35.00
2018-03-19T14:32:42.257Z,34.30
2018-03-19T14:35:10.876Z,34.20
2018-03-19T14:37:38.493Z,34.20
2018-03-19T14:40:06.213Z,33.40
2018-03-19T14:42:34.716Z,32.90
2018-03-19T14:45:02.424Z,32.90
2018-03-19T14:47:30.770Z,32.70
2018-03-19T14:49:59.456Z,32.40
2018-03-19T14:52:27.162Z,32.40
2018-03-19T14:54:55.140Z,32.00
2018-03-19T14:57:22.770Z,31.60
2018-03-19T14:59:50.500Z,32.20
2018-03-19T15:02:19.198Z,31.80
2018-03-19T15:04:46.821Z,31.50
2018-03-19T15:07:14.545Z,31.50
2018-03-19T15:09:43.354Z,31.60
2018-03-19T15:12:11.059Z,31.20
2018-03-19T15:14:39.075Z,31.50
2018-03-19T15:17:06.677Z,31.50
2018-03-19T15:19:34.556Z,31.10
2018-03-19T15:22:02.462Z,30.80
2018-03-19T15:24:30.126Z,30.60
2018-03-19T15:26:57.805Z,31.20
2018-03-19T15:29:26.114Z,30.90
2018-03-19T15:31:55.066Z,30.10
2018-03-19T15:34:22.684Z,30.00
2018-03-19T15:36:51.919Z,30.40
2018-03-19T15:39:20.312Z,31.10
2018-03-19T15:41:48.040Z,31.00
2018-03-19T15:44:15.917Z,30.50
2018-03-19T15:46:43.559Z,30.90
2018-03-19T15:49:11.325Z,31.30
2018-03-19T15:51:39.271Z,31.10
2018-03-19T15:54:09.158Z,30.30
2018-03-19T15:56:36.776Z,30.20
2018-03-19T15:59:05.399Z,30.20
2018-03-19T16:01:33.080Z,29.80
2018-03-19T16:04:02.213Z,30.00
2018-03-19T16:06:29.877Z,29.90
2018-03-19T16:08:58.101Z,29.80
2018-03-19T16:11:25.720Z,29.40
2018-03-19T16:13:53.379Z,29.20
2018-03-19T16:16:21.817Z,28.80
2018-03-19T16:18:52.035Z,27.20
2018-03-19T16:21:20.428Z,27.20
2018-03-19T16:23:48.060Z,27.00
2018-03-19T16:26:15.732Z,26.70
2018-03-19T16:28:43.417Z,26.30
2018-03-19T16:31:11.045Z,26.50
2018-03-19T16:33:38.689Z,26.00
2018-03-19T16:36:06.351Z,26.20
2018-03-19T16:38:33.925Z,26.20
2018-03-19T16:41:01.639Z,26.60
2018-03-19T16:43:29.251Z,25.50
2018-03-19T16:45:56.863Z,25.50
2018-03-19T16:48:24.449Z,25.70
2018-03-19T16:50:52.029Z,26.20
2018-03-19T16:53:20.365Z,27.30
2018-03-19T16:55:47.948Z,27.20
2018-03-19T16:58:15.518Z,27.70
2018-03-19T17:00:43.092Z,28.70
2018-03-19T17:03:10.700Z,29.30
2018-03-19T17:05:38.340Z,29.40
2018-03-19T17:08:06.678Z,28.90
2018-03-19T17:10:34.286Z,28.90
2018-03-19T17:13:02.628Z,28.90
2018-03-19T17:15:30.232Z,29.40
2018-03-19T17:17:57.844Z,29.00
2018-03-19T17:20:25.429Z,28.90
2018-03-19T17:22:53.089Z,29.20
2018-03-19T17:25:20.673Z,29.00
2018-03-19T17:27:48.252Z,28.60
2018-03-19T17:30:15.854Z,27.90
2018-03-19T17:32:43.448Z,27.90
2018-03-19T17:35:11.081Z,28.20
2018-03-19T17:37:38.664Z,28.60
2018-03-19T17:40:06.314Z,28.70
2018-03-19T17:42:33.937Z,28.80
2018-03-19T17:45:01.568Z,28.80
2018-03-19T17:47:29.144Z,29.00
2018-03-19T17:49:56.745Z,29.10
2018-03-19T17:52:25.070Z,28.90
2018-03-19T17:54:52.680Z,29.30
2018-03-19T17:57:20.333Z,29.40
2018-03-19T17:59:48.453Z,29.50
2018-03-19T18:02:16.492Z,29.50
2018-03-19T18:04:44.939Z,29.70
2018-03-19T18:07:13.199Z,29.70
2018-03-19T18:09:41.376Z,29.70
2018-03-19T18:12:08.989Z,29.80
2018-03-19T18:14:37.353Z,30.00
2018-03-19T18:17:04.949Z,30.00
2018-03-19T18:19:32.581Z,30.30
2018-03-19T18:22:00.292Z,30.10
2018-03-19T18:24:28.744Z,30.80
2018-03-19T18:26:56.348Z,30.70
2018-03-19T18:29:24.750Z,30.80
2018-03-19T18:31:53.945Z,31.20
2018-03-19T18:34:22.386Z,31.80
2018-03-19T18:36:50.592Z,31.80
2018-03-19T18:39:19.068Z,32.20
2018-03-19T18:41:46.954Z,32.20
2018-03-19T18:44:15.397Z,33.00
2018-03-19T18:46:43.038Z,33.00
2018-03-19T18:49:10.639Z,33.70
2018-03-19T18:51:38.327Z,33.80
2018-03-19T18:54:06.815Z,33.60
2018-03-19T18:56:34.560Z,33.60
2018-03-19T18:59:02.292Z,34.40
2018-03-19T19:01:30.094Z,34.40
2018-03-19T19:03:57.770Z,34.70
2018-03-19T19:06:26.336Z,35.30
2018-03-19T19:08:54.134Z,35.20
2018-03-19T19:11:22.524Z,35.60
2018-03-19T19:13:50.357Z,35.60
2018-03-19T19:16:18.111Z,35.20
2018-03-19T19:18:45.720Z,35.20
2018-03-19T19:21:13.471Z,35.10
2018-03-19T19:23:41.182Z,35.60
2018-03-19T19:26:08.941Z,35.50
2018-03-19T19:28:36.674Z,35.90
2018-03-19T19:31:04.424Z,35.70
2018-03-19T19:33:33.037Z,36.00
2018-03-19T19:36:01.648Z,36.60
2018-03-19T19:38:30.360Z,36.10
2018-03-19T19:40:58.087Z,36.10
2018-03-19T19:43:25.831Z,36.30
2018-03-19T19:45:53.639Z,36.30
2018-03-19T19:48:21.564Z,36.70
2018-03-19T19:50:49.329Z,36.30
2018-03-19T19:53:17.052Z,36.00
2018-03-19T19:55:45.696Z,36.10
2018-03-19T19:58:13.410Z,36.00
2018-03-19T20:00:41.214Z,36.40
2018-03-19T20:03:08.946Z,36.40
2018-03-19T20:05:37.388Z,36.70
2018-03-19T20:08:05.116Z,36.70
2018-03-19T20:10:32.905Z,36.80
2018-03-19T20:13:00.598Z,37.00
2018-03-19T20:15:28.292Z,37.10
2018-03-19T20:17:55.987Z,37.40
2018-03-19T20:20:23.682Z,37.80
2018-03-19T20:22:51.411Z,38.00
2018-03-19T20:25:19.039Z,38.00
2018-03-19T20:27:46.679Z,38.40
2018-03-19T20:30:14.333Z,38.80
2018-03-19T20:32:42.041Z,38.80
2018-03-19T20:35:09.685Z,39.10
2018-03-19T20:37:37.346Z,39.20
2018-03-19T20:40:05.081Z,39.40
2018-03-19T20:42:32.708Z,39.40
2018-03-19T20:45:01.110Z,39.80
2018-03-19T20:47:28.714Z,39.80
2018-03-19T20:49:57.095Z,40.50
2018-03-19T20:52:25.448Z,40.60
2018-03-19T20:54:53.088Z,40.50
2018-03-19T20:57:20.740Z,40.70
2018-03-19T20:59:48.412Z,41.10
2018-03-19T21:02:16.071Z,41.50
2018-03-19T21:04:44.302Z,42.50
2018-03-19T21:07:11.921Z,42.80
2018-03-19T21:09:39.621Z,43.40
2018-03-19T21:12:07.247Z,43.90
2018-03-19T21:14:34.872Z,44.60
2018-03-19T21:17:02.544Z,45.30
2018-03-19T21:19:30.939Z,46.90
2018-03-19T21:21:58.762Z,46.90
2018-03-19T21:24:26.363Z,47.80
2018-03-19T21:26:54.000Z,48.60
2018-03-19T21:29:22.114Z,49.20
2018-03-19T21:31:49.737Z,49.80
2018-03-19T21:34:17.400Z,50.30
2018-03-19T21:36:45.013Z,50.50
2018-03-19T21:39:13.448Z,50.90
2018-03-19T21:41:41.060Z,50.90
2018-03-19T21:44:08.677Z,51.10
2018-03-19T21:46:36.346Z,51.30
2018-03-19T21:49:03.949Z,51.50
2018-03-19T21:51:31.575Z,51.70
2018-03-19T21:53:59.226Z,51.90
2018-03-19T21:56:26.933Z,52.00
2018-03-19T21:58:55.229Z,51.80
2018-03-19T22:01:23.630Z,51.80
2018-03-19T22:03:52.010Z,52.10
2018-03-19T22:06:19.597Z,52.00
2018-03-19T22:08:47.272Z,52.30
2018-03-19T22:11:14.891Z,52.60
2018-03-19T22:13:42.525Z,53.10
2018-03-19T22:16:10.123Z,53.40
2018-03-19T22:18:37.756Z,53.60
2018-03-19T22:21:05.407Z,53.90
2018-03-19T22:23:33.019Z,54.00
2018-03-19T22:26:00.652Z,54.00
2018-03-19T22:28:28.249Z,54.20
2018-03-19T22:30:55.839Z,54.50
2018-03-19T22:33:23.472Z,54.70
2018-03-19T22:35:51.073Z,54.90
2018-03-19T22:38:19.435Z,55.20
2018-03-19T22:40:47.031Z,55.20
2018-03-19T22:43:15.403Z,55.50
2018-03-19T22:45:43.783Z,55.70
2018-03-19T22:48:12.195Z,56.10
2018-03-19T22:50:39.804Z,56.10
2018-03-19T22:53:07.432Z,56.00
2018-03-19T22:55:36.856Z,56.50
2018-03-19T22:58:04.452Z,57.00
2018-03-19T23:00:32.106Z,56.60
2018-03-19T23:02:59.708Z,57.10
2018-03-19T23:05:28.104Z,57.60
2018-03-19T23:07:55.724Z,57.60
2018-03-19T23:10:23.366Z,57.90
2018-03-19T23:12:50.966Z,57.80
2018-03-19T23:15:18.545Z,58.20
2018-03-19T23:17:46.923Z,58.90
2018-03-19T23:20:14.508Z,58.90
2018-03-19T23:22:42.903Z,59.40
2018-03-19T23:25:10.492Z,59.30
2018-03-19T23:27:38.217Z,59.30
2018-03-19T23:30:06.598Z,59.30
2018-03-19T23:32:34.993Z,60.10
2018-03-19T23:35:03.390Z,60.00
2018-03-19T23:37:31.019Z,60.00
2018-03-19T23:39:58.678Z,60.10
2018-03-19T23:42:27.074Z,60.50
2018-03-19T23:44:54.718Z,60.10
2018-03-19T23:47:22.325Z,59.90
2018-03-19T23:49:49.947Z,60.50
2018-03-19T23:52:17.591Z,60.20
2018-03-19T23:54:45.226Z,60.20
2018-03-19T23:57:12.841Z,60.40
2018-03-19T23:59:40.459Z,61.20
